Time;durP1;ratioP1;P1;durP2;ratioP2;P2;SDS_P1;SDS_P2;PMS_P1;PMS_P2;Temp;Humidity;BMP_temperature;BMP_pressure;BME280_temperature;BME280_humidity;BME280_pressure;Samples;Min_cycle;Max_cycle;Signal;HPM_P1;HPM_P2
2021/04/06 00:00:08;;;;;;;5.78;3.08;;;2.60;99.90;;;;;;4920914;29;20531;-86
2021/04/06 00:02:39;;;;;;;7.95;3.17;;;2.60;99.90;;;;;;4920852;29;20518;-87
2021/04/06 00:05:09;;;;;;;9.68;3.85;;;2.60;99.90;;;;;;4905999;29;20255;-88
2021/04/06 00:07:40;;;;;;;7.20;2.60;;;2.80;99.90;;;;;;4920538;29;20212;-88
2021/04/06 00:10:13;;;;;;;10.75;3.83;;;2.70;99.90;;;;;;4920661;29;20205;-86
2021/04/06 00:12:40;;;;;;;6.22;3.00;;;2.60;99.90;;;;;;4920775;29;20173;-89
2021/04/06 00:15:09;;;;;;;7.75;3.50;;;2.60;99.90;;;;;;4919919;29;20515;-87
2021/04/06 00:17:38;;;;;;;11.65;3.20;;;2.60;99.90;;;;;;4920044;29;20510;-87
2021/04/06 00:20:07;;;;;;;17.05;3.90;;;2.30;99.90;;;;;;4903774;29;20184;-87
2021/04/06 00:22:35;;;;;;;9.23;4.10;;;2.70;99.90;;;;;;4931534;29;20548;-84
2021/04/06 00:25:07;;;;;;;7.72;3.70;;;2.70;99.90;;;;;;4922038;29;20559;-87
2021/04/06 00:27:38;;;;;;;12.90;2.47;;;2.90;99.90;;;;;;4938936;29;20196;-86
2021/04/06 00:30:23;;;;;;;9.32;3.28;;;2.80;99.90;;;;;;4939264;29;20216;-87
2021/04/06 00:33:13;;;;;;;13.30;3.40;;;2.80;99.90;;;;;;4938926;29;20215;-89
2021/04/06 00:35:40;;;;;;;11.38;2.72;;;3.00;99.90;;;;;;4938766;29;20204;-87
2021/04/06 00:38:12;;;;;;;11.90;3.10;;;2.80;99.90;;;;;;4930494;29;20191;-86
2021/04/06 00:40:46;;;;;;;11.38;2.65;;;2.90;99.90;;;;;;4936673;29;20523;-89
2021/04/06 00:43:15;;;;;;;7.63;2.80;;;2.40;99.90;;;;;;4939101;29;20527;-86
2021/04/06 00:45:45;;;;;;;11.45;3.38;;;2.90;99.90;;;;;;4938299;29;20191;-87
2021/04/06 00:48:21;;;;;;;12.05;2.95;;;2.50;99.90;;;;;;4927363;29;20628;-87
2021/04/06 00:51:12;;;;;;;10.70;2.40;;;2.70;99.90;;;;;;4922188;29;20591;-88
2021/04/06 00:54:03;;;;;;;12.02;3.30;;;2.70;99.90;;;;;;4921008;29;20191;-87
2021/04/06 00:56:33;;;;;;;11.90;3.38;;;2.80;99.90;;;;;;4938408;29;20181;-85
2021/04/06 00:59:09;;;;;;;10.52;3.10;;;2.30;99.90;;;;;;4908358;29;20215;-83
2021/04/06 01:01:42;;;;;;;10.40;2.85;;;2.70;99.90;;;;;;4922148;29;20190;-85
2021/04/06 01:04:20;;;;;;;6.60;2.60;;;2.70;99.90;;;;;;4938903;29;20180;-86
2021/04/06 01:06:56;;;;;;;6.85;2.58;;;2.80;99.90;;;;;;4945357;29;20191;-87
2021/04/06 01:09:48;;;;;;;10.85;2.80;;;2.70;99.90;;;;;;4938182;29;20196;-87
2021/04/06 01:12:16;;;;;;;8.73;2.88;;;2.80;99.90;;;;;;4938297;29;20187;-87
2021/04/06 01:14:47;;;;;;;14.65;3.10;;;3.00;99.90;;;;;;4937671;29;20230;-87
2021/04/06 01:17:21;;;;;;;12.50;5.07;;;2.80;99.90;;;;;;4941073;29;20187;-85
2021/04/06 01:19:47;;;;;;;11.20;2.85;;;2.80;99.90;;;;;;4938355;29;20260;-87
2021/04/06 01:22:21;;;;;;;7.53;2.80;;;2.30;99.90;;;;;;4941158;29;20622;-88
2021/04/06 01:24:48;;;;;;;11.43;3.70;;;2.30;99.90;;;;;;4922090;29;20180;-88
2021/04/06 01:27:16;;;;;;;15.30;3.50;;;2.50;99.90;;;;;;4938688;29;20202;-88
2021/04/06 01:29:56;;;;;;;6.60;2.20;;;2.30;99.90;;;;;;4923260;29;20225;-86
2021/04/06 01:32:25;;;;;;;4.55;2.13;;;2.50;99.90;;;;;;4940012;29;20201;-87
2021/04/06 01:34:57;;;;;;;7.68;2.05;;;2.40;99.90;;;;;;4939190;29;20239;-84
2021/04/06 01:37:28;;;;;;;7.20;2.55;;;2.30;99.90;;;;;;4942941;29;20236;-84
2021/04/06 01:39:59;;;;;;;8.65;2.53;;;2.30;99.90;;;;;;4932921;29;20664;-88
2021/04/06 01:42:28;;;;;;;7.68;2.80;;;2.00;99.90;;;;;;4937787;29;20218;-83
2021/04/06 01:44:56;;;;;;;7.32;2.08;;;2.20;99.90;;;;;;4924054;29;20176;-86
2021/04/06 01:47:25;;;;;;;6.00;2.20;;;2.30;99.90;;;;;;4955094;29;20261;-85
2021/04/06 01:49:51;;;;;;;6.30;2.65;;;2.30;99.90;;;;;;4937189;29;20211;-85
2021/04/06 01:52:17;;;;;;;5.43;2.17;;;2.20;99.90;;;;;;4920522;29;20548;-85
2021/04/06 01:54:54;;;;;;;7.95;2.30;;;2.30;99.90;;;;;;4937489;29;20177;-85
2021/04/06 01:57:31;;;;;;;4.55;2.20;;;2.10;99.90;;;;;;4951602;28;20176;-86
2021/04/06 02:00:00;;;;;;;5.85;2.83;;;1.80;99.90;;;;;;4947203;29;20199;-85
2021/04/06 02:02:48;;;;;;;6.95;3.40;;;2.30;99.90;;;;;;4944921;29;20239;-85
2021/04/06 02:05:14;;;;;;;3.28;2.80;;;1.80;99.90;;;;;;4920297;29;20543;-84
2021/04/06 02:07:43;;;;;;;4.05;1.80;;;2.10;99.90;;;;;;4937265;29;20341;-86
2021/04/06 02:10:10;;;;;;;4.30;1.90;;;2.20;99.90;;;;;;4920554;29;20284;-85
2021/04/06 02:12:44;;;;;;;6.03;1.83;;;2.00;99.90;;;;;;4936544;29;20188;-86
2021/04/06 02:15:13;;;;;;;4.40;1.50;;;1.60;99.90;;;;;;4936610;29;20206;-86
2021/04/06 02:17:53;;;;;;;7.85;2.35;;;2.30;99.90;;;;;;4939956;29;20196;-85
2021/04/06 02:20:26;;;;;;;6.70;2.20;;;2.10;99.90;;;;;;4925135;29;20179;-85
2021/04/06 02:22:57;;;;;;;5.15;1.90;;;2.20;99.90;;;;;;4955787;29;20305;-85
2021/04/06 02:25:23;;;;;;;5.05;2.00;;;2.10;99.90;;;;;;4930474;29;20214;-86
2021/04/06 02:27:49;;;;;;;4.37;2.07;;;2.20;99.90;;;;;;4927427;29;20231;-84
2021/04/06 02:30:15;;;;;;;8.07;2.70;;;1.80;99.90;;;;;;4955350;29;20466;-84
2021/04/06 02:32:41;;;;;;;7.55;2.03;;;2.00;99.90;;;;;;4955953;29;20194;-84
2021/04/06 02:35:12;;;;;;;6.50;2.15;;;1.90;99.90;;;;;;4944530;29;20213;-84
2021/04/06 02:37:43;;;;;;;11.85;3.97;;;2.10;99.90;;;;;;4946758;29;20175;-84
2021/04/06 02:40:15;;;;;;;8.25;3.25;;;1.50;99.90;;;;;;4955085;29;20224;-84
2021/04/06 02:42:42;;;;;;;6.95;3.30;;;1.80;99.90;;;;;;4955159;29;20204;-85
2021/04/06 02:45:12;;;;;;;8.43;1.85;;;1.50;99.90;;;;;;4922196;29;20556;-86
2021/04/06 02:47:50;;;;;;;4.93;1.58;;;1.70;99.90;;;;;;4937203;29;20640;-82
2021/04/06 02:50:21;;;;;;;4.28;1.65;;;1.90;99.90;;;;;;4951267;29;20253;-85
2021/04/06 02:52:47;;;;;;;6.00;1.80;;;1.30;99.90;;;;;;4936140;29;20296;-85
2021/04/06 02:55:15;;;;;;;5.88;1.67;;;1.90;99.90;;;;;;4922430;29;20193;-85
2021/04/06 02:57:49;;;;;;;7.20;1.80;;;1.90;99.90;;;;;;4944418;29;20249;-85
2021/04/06 03:00:27;;;;;;;5.60;3.10;;;1.80;99.90;;;;;;4930610;29;20190;-85
2021/04/06 03:02:58;;;;;;;10.07;3.65;;;1.90;99.90;;;;;;4936189;29;20339;-87
2021/04/06 03:05:33;;;;;;;6.57;3.83;;;2.20;99.90;;;;;;4938376;29;20243;-84
2021/04/06 03:08:02;;;;;;;14.48;6.25;;;1.80;99.90;;;;;;4949744;28;20191;-84
2021/04/06 03:10:34;;;;;;;15.35;6.80;;;2.00;99.90;;;;;;4956046;29;20226;-83
2021/04/06 03:13:12;;;;;;;22.95;7.15;;;2.10;99.90;;;;;;4940188;29;20187;-84
2021/04/06 03:15:42;;;;;;;12.35;7.75;;;2.30;99.90;;;;;;4941357;29;20484;-84
2021/04/06 03:18:11;;;;;;;15.27;6.13;;;2.30;99.90;;;;;;4954351;29;20218;-84
2021/04/06 03:20:39;;;;;;;16.70;4.07;;;2.30;99.90;;;;;;4954107;29;20210;-85
2021/04/06 03:23:06;;;;;;;11.15;3.33;;;2.40;99.90;;;;;;4939798;29;20236;-85
2021/04/06 03:25:37;;;;;;;9.02;3.03;;;2.00;99.90;;;;;;4928351;29;20191;-84
2021/04/06 03:28:08;;;;;;;9.07;3.38;;;2.20;99.90;;;;;;4948569;29;20187;-84
2021/04/06 03:30:38;;;;;;;9.43;3.58;;;2.30;99.90;;;;;;4935585;29;20529;-85
2021/04/06 03:33:06;;;;;;;10.50;2.90;;;2.00;99.90;;;;;;4939936;29;20180;-84
2021/04/06 03:35:34;;;;;;;13.65;4.03;;;2.20;99.90;;;;;;4941611;29;20198;-85
2021/04/06 03:38:02;;;;;;;10.15;2.90;;;2.20;99.90;;;;;;4932617;29;20665;-84
2021/04/06 03:40:39;;;;;;;10.50;4.05;;;2.20;99.90;;;;;;4939505;29;20188;-84
2021/04/06 03:43:24;;;;;;;7.78;3.28;;;2.20;99.90;;;;;;4939264;29;20628;-85
2021/04/06 03:45:57;;;;;;;7.53;3.15;;;2.20;99.90;;;;;;4938365;29;20520;-84
2021/04/06 03:48:25;;;;;;;5.30;2.67;;;2.40;99.90;;;;;;4947325;29;20227;-84
2021/04/06 03:50:54;;;;;;;7.95;2.45;;;2.20;99.90;;;;;;4957862;29;20249;-84
2021/04/06 03:53:25;;;;;;;11.27;2.67;;;1.90;99.90;;;;;;4903628;29;20193;-84
2021/04/06 03:56:09;;;;;;;13.05;2.78;;;2.20;99.90;;;;;;4913399;29;20211;-84
2021/04/06 04:01:08;;;;;;;14.00;2.40;;;2.20;99.90;;;;;;4930164;29;20217;-84
2021/04/06 04:03:40;;;;;;;5.97;2.30;;;1.60;99.90;;;;;;4959408;29;20218;-84
2021/04/06 04:06:07;;;;;;;6.05;2.08;;;2.00;99.90;;;;;;4930323;29;20199;-84
2021/04/06 04:08:33;;;;;;;11.80;2.67;;;1.70;99.90;;;;;;4906558;29;20195;-84
2021/04/06 04:10:59;;;;;;;16.52;4.15;;;2.00;99.90;;;;;;4928341;29;20247;-85
2021/04/06 04:13:25;;;;;;;8.67;2.73;;;1.90;99.90;;;;;;4956084;29;20270;-85
2021/04/06 04:15:51;;;;;;;8.40;3.08;;;2.10;99.90;;;;;;4950218;29;20595;-84
2021/04/06 04:18:20;;;;;;;16.23;2.92;;;1.70;99.90;;;;;;4923126;29;20312;-84
2021/04/06 04:20:46;;;;;;;13.15;3.38;;;2.10;99.90;;;;;;4950491;29;20191;-83
2021/04/06 04:23:15;;;;;;;9.70;2.80;;;1.80;99.90;;;;;;4940881;29;20192;-83
2021/04/06 04:25:43;;;;;;;9.03;2.50;;;1.70;99.90;;;;;;4922248;29;20230;-84
2021/04/06 04:28:09;;;;;;;12.27;2.85;;;2.00;99.90;;;;;;4922377;29;20454;-84
2021/04/06 04:30:36;;;;;;;12.13;3.27;;;1.60;99.90;;;;;;4921491;29;20218;-84
2021/04/06 04:33:06;;;;;;;15.02;2.75;;;1.90;99.90;;;;;;4922896;29;20893;-84
2021/04/06 04:35:36;;;;;;;6.45;2.65;;;1.60;99.90;;;;;;4938010;29;20170;-84
2021/04/06 04:38:03;;;;;;;12.27;3.35;;;1.90;99.90;;;;;;4943966;29;20197;-84
2021/04/06 04:40:32;;;;;;;13.63;4.55;;;1.80;99.90;;;;;;4932482;29;20195;-83
2021/04/06 04:42:59;;;;;;;13.32;3.30;;;1.80;99.90;;;;;;4921519;29;20603;-84
2021/04/06 04:45:30;;;;;;;14.85;3.00;;;1.80;99.90;;;;;;4938262;29;20543;-84
2021/04/06 04:47:56;;;;;;;17.45;3.20;;;1.80;99.90;;;;;;4915026;29;20678;-84
2021/04/06 04:50:25;;;;;;;18.47;3.13;;;1.90;99.90;;;;;;4938126;29;20215;-83
2021/04/06 04:52:54;;;;;;;11.80;3.10;;;2.10;99.90;;;;;;4927874;29;20529;-84
2021/04/06 04:55:20;;;;;;;16.30;3.10;;;2.00;99.90;;;;;;4938508;29;20561;-84
2021/04/06 04:57:50;;;;;;;9.90;2.65;;;2.00;99.90;;;;;;4956181;29;20210;-85
2021/04/06 05:00:17;;;;;;;17.10;3.93;;;2.00;99.90;;;;;;4952899;29;20787;-84
2021/04/06 05:02:43;;;;;;;17.05;3.30;;;2.10;99.90;;;;;;4921494;29;20453;-85
2021/04/06 05:05:11;;;;;;;9.10;2.80;;;2.30;99.90;;;;;;4951898;29;20589;-85
2021/04/06 05:07:38;;;;;;;15.43;3.05;;;2.20;99.90;;;;;;4955419;29;20629;-84
2021/04/06 05:10:11;;;;;;;11.88;2.55;;;2.10;99.90;;;;;;4932838;29;20204;-79
2021/04/06 05:12:41;;;;;;;18.63;2.80;;;2.20;99.90;;;;;;4934847;29;20196;-79
2021/04/06 05:15:08;;;;;;;10.35;2.90;;;2.10;99.90;;;;;;4944014;29;20211;-79
2021/04/06 05:17:41;;;;;;;5.15;2.28;;;2.20;99.90;;;;;;4936715;29;20188;-79
2021/04/06 05:20:12;;;;;;;7.82;2.25;;;2.00;99.90;;;;;;4936383;29;20874;-80
2021/04/06 05:22:43;;;;;;;10.55;2.70;;;2.10;99.90;;;;;;4939969;29;20234;-79
2021/04/06 05:25:16;;;;;;;12.82;2.53;;;1.60;99.90;;;;;;4939860;29;20234;-79
2021/04/06 05:27:46;;;;;;;11.75;3.15;;;2.20;99.90;;;;;;4928243;29;20223;-79
2021/04/06 05:30:17;;;;;;;5.68;2.17;;;2.00;99.90;;;;;;4937219;29;20222;-80
2021/04/06 05:32:43;;;;;;;5.47;2.45;;;1.90;99.90;;;;;;4908176;29;20258;-79
2021/04/06 05:35:17;;;;;;;9.48;3.53;;;1.50;99.90;;;;;;4915051;29;20503;-79
2021/04/06 05:37:45;;;;;;;10.25;2.70;;;1.90;99.90;;;;;;4930106;29;20183;-80
2021/04/06 05:40:18;;;;;;;14.75;3.80;;;2.00;99.90;;;;;;4926787;29;20326;-79
2021/04/06 05:42:49;;;;;;;20.60;3.17;;;2.10;99.90;;;;;;4909196;29;20257;-80
2021/04/06 05:45:19;;;;;;;8.98;2.78;;;2.00;99.90;;;;;;4913150;29;20191;-80
2021/04/06 05:47:52;;;;;;;6.00;3.28;;;2.00;99.90;;;;;;4927673;29;20186;-79
2021/04/06 05:50:22;;;;;;;8.60;3.10;;;1.90;99.90;;;;;;4927476;29;20202;-79
2021/04/06 05:52:54;;;;;;;14.27;3.25;;;1.90;99.90;;;;;;4935577;29;20226;-81
2021/04/06 05:55:22;;;;;;;9.95;3.13;;;2.10;99.90;;;;;;4935996;29;20189;-80
2021/04/06 05:57:48;;;;;;;14.15;2.38;;;2.10;99.90;;;;;;4922083;29;20183;-78
2021/04/06 06:00:23;;;;;;;3.92;2.30;;;1.80;99.90;;;;;;4944981;29;20194;-80
2021/04/06 06:02:51;;;;;;;5.30;2.17;;;2.10;99.90;;;;;;4932164;29;20199;-81
2021/04/06 06:05:24;;;;;;;5.25;1.95;;;1.80;99.90;;;;;;4940684;29;20314;-80
2021/04/06 06:08:02;;;;;;;5.82;1.70;;;2.10;99.90;;;;;;4930141;29;20193;-80
2021/04/06 06:10:33;;;;;;;5.72;2.25;;;1.70;99.90;;;;;;4920521;29;20651;-80
2021/04/06 06:13:20;;;;;;;9.98;2.67;;;2.30;99.90;;;;;;4919929;29;20206;-81
2021/04/06 06:16:11;;;;;;;3.80;1.85;;;2.20;99.90;;;;;;4920092;29;20636;-80
2021/04/06 06:18:51;;;;;;;4.85;2.60;;;1.60;99.90;;;;;;4924812;29;20215;-80
2021/04/06 06:21:23;;;;;;;8.40;2.42;;;2.00;99.90;;;;;;4926708;29;20236;-81
2021/04/06 06:24:01;;;;;;;9.13;2.60;;;2.10;99.90;;;;;;4919935;29;20210;-81
2021/04/06 06:26:26;;;;;;;10.82;3.20;;;2.00;99.90;;;;;;4919678;29;20184;-80
2021/04/06 06:29:10;;;;;;;10.85;2.88;;;2.00;99.90;;;;;;4935644;29;20190;-80
2021/04/06 06:31:47;;;;;;;14.13;3.63;;;2.20;99.90;;;;;;4919968;29;20210;-82
2021/04/06 06:34:34;;;;;;;8.95;2.85;;;2.20;99.90;;;;;;4936497;29;20195;-81
2021/04/06 06:37:31;;;;;;;13.95;2.80;;;2.40;99.90;;;;;;4923504;29;20218;-81
2021/04/06 06:40:04;;;;;;;6.88;2.40;;;2.20;99.90;;;;;;4929865;29;20188;-81
2021/04/06 06:42:39;;;;;;;11.80;3.13;;;2.50;99.90;;;;;;4932525;29;20275;-80
2021/04/06 06:45:24;;;;;;;9.55;2.53;;;2.20;99.90;;;;;;4930012;29;20212;-80
2021/04/06 06:47:57;;;;;;;9.07;2.88;;;2.30;99.90;;;;;;4929814;29;20222;-80
2021/04/06 06:50:26;;;;;;;7.60;2.53;;;2.20;99.90;;;;;;4934651;29;20219;-81
2021/04/06 06:52:54;;;;;;;9.43;2.75;;;2.40;99.90;;;;;;4934783;29;20202;-80
2021/04/06 06:55:27;;;;;;;8.95;2.80;;;2.30;99.90;;;;;;4902194;29;20188;-80
2021/04/06 06:58:08;;;;;;;6.30;3.15;;;2.40;99.90;;;;;;4938370;29;20194;-84
2021/04/06 07:00:36;;;;;;;15.00;3.58;;;2.50;99.90;;;;;;4934787;29;20664;-80
2021/04/06 07:03:16;;;;;;;10.05;3.45;;;2.40;99.90;;;;;;4933884;29;20182;-80
2021/04/06 07:05:47;;;;;;;6.93;2.55;;;2.60;99.90;;;;;;4899452;29;20191;-81
2021/04/06 07:08:13;;;;;;;13.43;2.80;;;2.70;99.90;;;;;;4913654;29;20227;-80
2021/04/06 07:10:46;;;;;;;12.93;2.88;;;2.20;99.90;;;;;;4918895;29;20219;-80
2021/04/06 07:13:28;;;;;;;7.13;2.55;;;2.90;99.90;;;;;;4925920;29;20727;-80
2021/04/06 07:15:57;;;;;;;10.43;2.67;;;2.80;99.90;;;;;;4933989;29;20275;-81
2021/04/06 07:18:28;;;;;;;11.95;3.10;;;2.90;99.90;;;;;;4935058;29;20203;-84
2021/04/06 07:20:59;;;;;;;8.18;2.28;;;3.00;99.90;;;;;;4932159;29;20199;-81
2021/04/06 07:23:52;;;;;;;7.50;2.50;;;3.00;99.90;;;;;;4917745;29;20191;-80
2021/04/06 07:26:22;;;;;;;5.97;2.63;;;3.10;99.90;;;;;;4933962;29;20192;-80
2021/04/06 07:28:50;;;;;;;11.00;2.72;;;3.20;99.90;;;;;;4930830;29;20215;-80
2021/04/06 07:31:21;;;;;;;10.85;2.47;;;3.40;99.90;;;;;;4932839;29;20626;-79
2021/04/06 07:33:49;;;;;;;8.90;2.83;;;3.50;99.90;;;;;;4925749;29;20197;-80
2021/04/06 07:36:20;;;;;;;15.15;2.40;;;3.40;99.90;;;;;;4923681;29;20191;-80
2021/04/06 07:38:50;;;;;;;5.78;2.83;;;3.60;99.90;;;;;;4933094;29;20207;-80
2021/04/06 07:41:21;;;;;;;4.43;2.20;;;3.00;99.90;;;;;;4932891;29;20176;-80
2021/04/06 07:43:52;;;;;;;6.28;2.22;;;3.40;99.90;;;;;;4931057;29;20192;-80
2021/04/06 07:46:32;;;;;;;11.05;2.75;;;3.40;99.90;;;;;;4931391;29;20199;-80
2021/04/06 07:49:07;;;;;;;7.32;2.30;;;3.50;99.90;;;;;;4932652;29;20306;-80
2021/04/06 07:51:50;;;;;;;10.18;2.60;;;3.60;99.90;;;;;;4931322;29;20545;-82
2021/04/06 07:54:43;;;;;;;8.65;2.72;;;3.80;99.90;;;;;;4935687;29;20199;-82
2021/04/06 07:57:17;;;;;;;5.63;2.55;;;3.80;99.90;;;;;;4920252;29;20266;-82
2021/04/06 07:59:53;;;;;;;6.57;3.42;;;3.80;99.90;;;;;;4936582;29;20184;-82
2021/04/06 08:02:26;;;;;;;8.60;2.30;;;4.00;99.90;;;;;;4927439;29;20208;-82
2021/04/06 08:04:56;;;;;;;10.23;2.78;;;4.20;99.90;;;;;;4937552;29;20188;-81
2021/04/06 08:07:35;;;;;;;5.78;2.40;;;4.20;99.90;;;;;;4935596;29;20184;-81
2021/04/06 08:10:09;;;;;;;6.65;2.25;;;4.40;99.90;;;;;;4936058;29;20235;-82
2021/04/06 08:12:38;;;;;;;8.27;2.42;;;4.50;99.90;;;;;;4920533;29;20184;-81
2021/04/06 08:15:12;;;;;;;6.82;2.38;;;4.70;99.90;;;;;;4934424;29;20240;-83
2021/04/06 08:17:41;;;;;;;7.78;2.65;;;4.80;99.90;;;;;;4932468;29;20203;-80
2021/04/06 08:20:18;;;;;;;8.10;2.70;;;4.80;99.90;;;;;;4933964;29;20196;-80
2021/04/06 08:23:00;;;;;;;6.05;3.00;;;4.80;99.90;;;;;;4929207;29;20688;-80
2021/04/06 08:25:29;;;;;;;6.40;2.80;;;4.90;99.90;;;;;;4938682;29;20196;-80
2021/04/06 08:28:03;;;;;;;7.55;2.70;;;4.90;99.90;;;;;;4935861;29;20250;-80
2021/04/06 08:30:34;;;;;;;7.70;2.67;;;4.80;99.90;;;;;;4919977;29;20336;-79
2021/04/06 08:33:09;;;;;;;4.50;2.50;;;4.70;99.90;;;;;;4931785;29;20205;-80
2021/04/06 08:35:44;;;;;;;5.47;2.88;;;4.60;99.90;;;;;;4934137;29;20242;-80
2021/04/06 08:38:25;;;;;;;4.00;2.20;;;4.60;99.90;;;;;;4920869;29;20516;-80
2021/04/06 08:40:59;;;;;;;6.93;2.40;;;4.70;99.90;;;;;;4928346;29;20275;-80
2021/04/06 08:43:47;;;;;;;4.93;2.75;;;4.80;99.90;;;;;;4918883;29;20216;-79
2021/04/06 08:46:35;;;;;;;3.75;2.40;;;5.00;99.90;;;;;;4934169;29;20184;-79
2021/04/06 08:49:23;;;;;;;4.65;2.72;;;5.10;99.90;;;;;;4930160;29;20189;-79
2021/04/06 08:52:00;;;;;;;6.78;2.42;;;5.20;99.90;;;;;;4918219;29;20228;-80
2021/04/06 08:54:50;;;;;;;5.15;2.45;;;5.30;99.90;;;;;;4934683;29;20198;-90
2021/04/06 08:57:38;;;;;;;4.00;2.85;;;5.40;99.90;;;;;;4933778;29;20228;-80
2021/04/06 09:00:38;;;;;;;3.78;2.70;;;5.60;99.90;;;;;;4915388;29;20295;-80
2021/04/06 09:03:07;;;;;;;5.43;2.00;;;5.50;99.90;;;;;;4933795;29;20204;-82
2021/04/06 09:05:35;;;;;;;5.50;2.80;;;5.50;99.90;;;;;;4928505;29;20206;-80
2021/04/06 09:08:01;;;;;;;4.70;2.50;;;5.30;99.90;;;;;;4929364;29;20205;-80
2021/04/06 09:10:37;;;;;;;3.08;2.22;;;5.30;99.90;;;;;;4920812;29;20487;-80
2021/04/06 09:13:08;;;;;;;4.75;2.55;;;5.50;99.90;;;;;;4929519;29;20537;-81
2021/04/06 09:15:34;;;;;;;4.20;3.00;;;5.50;99.90;;;;;;4934790;29;20605;-80
2021/04/06 09:18:05;;;;;;;5.15;2.53;;;5.50;99.90;;;;;;4917024;29;20216;-81
2021/04/06 09:20:34;;;;;;;3.53;2.63;;;5.70;99.90;;;;;;4933601;29;20189;-80
2021/04/06 09:23:06;;;;;;;2.95;2.30;;;5.90;99.90;;;;;;4934768;29;20236;-82
2021/04/06 09:25:32;;;;;;;5.28;3.30;;;5.70;99.90;;;;;;4934251;29;20201;-80
2021/04/06 09:28:03;;;;;;;3.97;2.95;;;5.60;99.90;;;;;;4936285;29;20681;-81
2021/04/06 09:30:43;;;;;;;3.47;2.22;;;5.50;99.90;;;;;;4915685;29;20278;-79
2021/04/06 09:33:21;;;;;;;3.58;2.95;;;5.60;99.90;;;;;;4932766;29;20232;-81
2021/04/06 09:35:59;;;;;;;6.93;3.92;;;5.90;99.90;;;;;;4918782;29;20199;-82
2021/04/06 09:38:29;;;;;;;4.18;3.65;;;6.10;99.90;;;;;;4931752;29;20173;-83
2021/04/06 09:41:02;;;;;;;10.55;3.60;;;6.30;99.90;;;;;;4933773;29;20235;-83
2021/04/06 09:43:35;;;;;;;8.52;3.40;;;6.30;99.90;;;;;;4934503;29;20309;-83
2021/04/06 09:46:03;;;;;;;6.72;3.75;;;6.10;97.70;;;;;;4935353;29;20271;-82
2021/04/06 09:48:37;;;;;;;5.30;2.85;;;5.90;96.90;;;;;;4934977;29;20263;-81
2021/04/06 09:51:07;;;;;;;4.03;2.78;;;5.70;99.60;;;;;;4933301;29;20208;-82
2021/04/06 09:53:43;;;;;;;5.85;2.20;;;5.30;99.90;;;;;;4929577;29;20496;-82
2021/04/06 09:56:14;;;;;;;5.03;1.90;;;5.10;99.90;;;;;;4927653;29;20182;-81
2021/04/06 09:58:42;;;;;;;4.22;2.70;;;4.80;99.90;;;;;;4933523;29;20267;-82
2021/04/06 10:01:26;;;;;;;2.67;2.47;;;4.70;99.90;;;;;;4922648;29;20200;-80
2021/04/06 10:04:02;;;;;;;4.90;3.35;;;4.50;99.90;;;;;;4933502;29;20224;-80
2021/04/06 10:06:39;;;;;;;4.05;2.05;;;4.30;99.90;;;;;;4935036;29;20192;-81
2021/04/06 10:09:24;;;;;;;5.57;2.50;;;3.90;99.90;;;;;;4903323;29;20540;-80
2021/04/06 10:11:54;;;;;;;4.45;2.65;;;3.90;99.90;;;;;;4939494;29;20524;-80
2021/04/06 10:14:21;;;;;;;3.65;2.33;;;4.10;99.90;;;;;;4932207;29;20243;-81
2021/04/06 10:17:05;;;;;;;4.15;2.42;;;4.30;99.90;;;;;;4928011;29;20185;-83
2021/04/06 10:19:41;;;;;;;4.50;2.50;;;4.60;99.90;;;;;;4923236;29;20645;-82
2021/04/06 10:22:17;;;;;;;3.78;2.08;;;5.00;99.90;;;;;;4913749;29;20251;-82
2021/04/06 10:24:53;;;;;;;2.85;1.80;;;5.30;99.90;;;;;;4917570;29;20271;-83
2021/04/06 10:27:27;;;;;;;4.35;2.30;;;5.70;99.90;;;;;;4919094;29;20284;-83
2021/04/06 10:30:05;;;;;;;3.65;2.30;;;5.90;99.90;;;;;;4931698;29;20654;-81
2021/04/06 10:32:34;;;;;;;7.65;2.90;;;6.20;99.90;;;;;;4919181;29;20185;-82
2021/04/06 10:35:08;;;;;;;3.10;2.13;;;6.50;99.90;;;;;;4923657;29;20263;-81
2021/04/06 10:38:06;;;;;;;3.40;2.50;;;6.80;99.90;;;;;;4941177;29;20600;-81
2021/04/06 10:40:45;;;;;;;5.70;2.80;;;7.00;99.90;;;;;;4901756;29;20537;-82
2021/04/06 10:43:23;;;;;;;3.58;3.25;;;7.10;99.90;;;;;;4930546;29;20179;-81
2021/04/06 10:45:59;;;;;;;5.05;3.25;;;7.30;99.90;;;;;;4932458;29;20288;-81
2021/04/06 10:48:30;;;;;;;3.60;2.70;;;7.70;99.90;;;;;;4933376;29;20199;-82
2021/04/06 10:51:06;;;;;;;6.00;2.78;;;8.10;99.90;;;;;;4937517;29;20550;-81
2021/04/06 10:53:47;;;;;;;5.17;3.00;;;8.10;99.70;;;;;;4915967;29;20625;-82
2021/04/06 10:56:19;;;;;;;3.57;3.23;;;8.40;99.50;;;;;;4910833;29;20454;-81
2021/04/06 10:58:56;;;;;;;6.50;3.07;;;8.60;98.50;;;;;;4918386;29;20876;-81
2021/04/06 11:01:38;;;;;;;4.83;3.40;;;8.30;97.90;;;;;;4912126;29;20484;-81
2021/04/06 11:04:26;;;;;;;2.77;2.50;;;7.90;96.30;;;;;;4933359;29;20906;-84
2021/04/06 11:07:02;;;;;;;10.32;3.30;;;7.50;94.10;;;;;;4910690;29;20445;-81
2021/04/06 11:09:40;;;;;;;3.88;2.75;;;7.30;96.10;;;;;;4934961;29;20225;-82
2021/04/06 11:12:13;;;;;;;3.78;2.63;;;7.00;96.20;;;;;;4932514;29;20256;-82
2021/04/06 11:14:45;;;;;;;6.82;2.70;;;6.80;95.40;;;;;;4918362;29;20188;-81
2021/04/06 11:17:14;;;;;;;8.13;3.38;;;6.60;95.80;;;;;;4917771;29;20285;-81
2021/04/06 11:19:45;;;;;;;3.28;2.85;;;6.50;97.10;;;;;;4928934;29;20203;-81
2021/04/06 11:22:19;;;;;;;3.22;2.85;;;6.50;98.60;;;;;;4918874;29;20231;-79
2021/04/06 11:24:53;;;;;;;10.00;2.35;;;6.40;99.80;;;;;;4930960;29;20205;-82
2021/04/06 11:27:21;;;;;;;3.05;2.67;;;6.50;97.70;;;;;;4930233;29;20257;-81
2021/04/06 11:29:50;;;;;;;3.75;3.28;;;6.70;97.80;;;;;;4935087;29;20205;-80
2021/04/06 11:32:23;;;;;;;6.65;3.35;;;7.00;98.40;;;;;;4937007;29;20255;-79
2021/04/06 11:34:54;;;;;;;4.43;2.90;;;7.10;99.30;;;;;;4930370;29;20181;-81
2021/04/06 11:37:22;;;;;;;2.63;2.40;;;7.20;97.80;;;;;;4901337;29;20264;-80
2021/04/06 11:39:51;;;;;;;3.13;2.08;;;7.00;98.60;;;;;;4937263;29;20197;-80
2021/04/06 11:42:22;;;;;;;2.10;1.90;;;7.00;99.50;;;;;;4919367;29;20253;-79
2021/04/06 11:44:53;;;;;;;2.08;1.98;;;7.30;99.90;;;;;;4934902;29;20185;-80
2021/04/06 11:47:21;;;;;;;2.70;2.50;;;7.40;98.50;;;;;;4934189;29;20210;-81
2021/04/06 11:49:49;;;;;;;3.25;2.40;;;7.50;99.60;;;;;;4929212;29;20243;-81
2021/04/06 11:52:18;;;;;;;2.53;2.40;;;7.70;98.60;;;;;;4918449;29;20186;-80
2021/04/06 11:54:44;;;;;;;2.90;1.80;;;7.60;99.40;;;;;;4934428;29;20196;-79
2021/04/06 11:57:10;;;;;;;3.00;2.80;;;7.80;99.90;;;;;;4935700;29;20321;-82
2021/04/06 11:59:36;;;;;;;3.10;2.90;;;8.00;97.80;;;;;;4919319;29;20449;-79
2021/04/06 12:02:02;;;;;;;2.80;2.70;;;8.10;98.80;;;;;;4932557;29;20213;-81
2021/04/06 12:04:32;;;;;;;3.85;3.50;;;8.30;98.60;;;;;;4935925;29;20277;-80
2021/04/06 12:06:58;;;;;;;3.20;3.00;;;8.30;97.50;;;;;;4935454;29;20183;-77
2021/04/06 12:09:25;;;;;;;3.30;3.00;;;8.10;96.00;;;;;;4921267;29;20981;-81
2021/04/06 12:11:51;;;;;;;7.20;6.50;;;7.70;98.20;;;;;;4929151;29;20473;-80
2021/04/06 12:14:22;;;;;;;4.82;3.80;;;7.10;99.90;;;;;;4930423;29;20197;-79
2021/04/06 12:16:55;;;;;;;2.60;2.40;;;6.40;99.90;;;;;;4936899;29;20198;-78
2021/04/06 12:19:21;;;;;;;2.47;2.15;;;5.80;99.90;;;;;;4901664;29;20828;-78
2021/04/06 12:21:51;;;;;;;3.97;2.92;;;5.30;99.90;;;;;;4920234;29;20569;-78
2021/04/06 12:24:17;;;;;;;3.55;2.15;;;4.80;99.90;;;;;;4936491;29;20180;-78
2021/04/06 12:26:43;;;;;;;4.15;3.20;;;4.30;99.90;;;;;;4916458;29;20243;-79
2021/04/06 12:29:14;;;;;;;3.10;2.10;;;4.10;99.90;;;;;;4935388;29;20189;-78
2021/04/06 12:31:47;;;;;;;2.72;2.03;;;3.80;99.90;;;;;;4926845;29;20195;-80
2021/04/06 12:34:13;;;;;;;2.40;1.88;;;3.60;99.90;;;;;;4936247;29;20709;-80
2021/04/06 12:36:46;;;;;;;4.47;3.10;;;3.20;99.90;;;;;;4935305;29;20200;-80
2021/04/06 12:39:14;;;;;;;3.60;2.35;;;3.00;99.90;;;;;;4933516;29;20207;-81
2021/04/06 12:41:42;;;;;;;3.55;1.45;;;2.80;99.90;;;;;;4933085;29;20316;-81
2021/04/06 12:44:10;;;;;;;2.10;1.20;;;2.20;99.90;;;;;;4919062;29;20206;-82
2021/04/06 12:46:41;;;;;;;2.75;1.65;;;2.70;99.90;;;;;;4912375;29;20183;-82
2021/04/06 12:49:11;;;;;;;2.17;1.80;;;2.20;99.90;;;;;;4926410;29;20216;-83
2021/04/06 12:51:40;;;;;;;3.80;1.92;;;1.90;99.90;;;;;;4909010;29;20299;-83
2021/04/06 12:54:15;;;;;;;2.17;1.38;;;2.30;99.90;;;;;;4918345;29;20192;-83
2021/04/06 12:56:44;;;;;;;1.77;1.05;;;2.20;99.90;;;;;;4918974;29;20230;-82
2021/04/06 12:59:10;;;;;;;1.27;1.17;;;2.30;99.90;;;;;;4918709;29;20216;-81
2021/04/06 13:01:40;;;;;;;1.80;1.20;;;2.70;99.90;;;;;;4917692;29;20519;-81
2021/04/06 13:04:09;;;;;;;2.25;1.10;;;3.20;99.90;;;;;;4922479;29;20294;-82
2021/04/06 13:06:38;;;;;;;1.98;1.23;;;3.80;99.90;;;;;;4933698;29;20214;-82
2021/04/06 13:09:08;;;;;;;1.80;1.30;;;4.30;99.90;;;;;;4929230;29;20189;-82
2021/04/06 13:11:34;;;;;;;1.10;0.90;;;4.70;99.90;;;;;;4918511;29;20198;-82
2021/04/06 13:14:03;;;;;;;1.25;1.05;;;5.20;99.90;;;;;;4930593;29;20247;-82
2021/04/06 13:16:30;;;;;;;1.55;1.27;;;5.70;99.90;;;;;;4935826;29;20255;-82
2021/04/06 13:18:56;;;;;;;1.40;1.15;;;5.90;99.90;;;;;;4930661;29;20200;-80
2021/04/06 13:21:26;;;;;;;1.40;1.20;;;6.00;99.90;;;;;;4933294;29;20224;-80
2021/04/06 13:24:02;;;;;;;2.28;1.40;;;6.20;99.90;;;;;;4921896;29;20195;-81